createdAt,value
2022-12-25T00:01:37.645Z,78.72
2022-12-25T00:04:04.205Z,63.08
2022-12-25T00:06:30.689Z,73.03
2022-12-25T00:08:57.159Z,81.82
2022-12-25T00:11:23.658Z,66.03
2022-12-25T00:13:50.143Z,60.83
2022-12-25T00:16:21.791Z,72.38
2022-12-25T00:18:48.508Z,82.10
2022-12-25T00:21:15.586Z,80.43
2022-12-25T00:23:42.244Z,64.28
2022-12-25T00:26:13.540Z,78.28
2022-12-25T00:28:40.067Z,85.70
2022-12-25T00:31:17.035Z,80.13
2022-12-25T00:33:44.691Z,86.82
2022-12-25T00:36:11.932Z,114.30
2022-12-25T00:38:39.578Z,91.03
2022-12-25T00:41:10.455Z,95.93
2022-12-25T00:43:38.535Z,78.10
2022-12-25T00:46:06.697Z,89.60
2022-12-25T00:48:33.822Z,82.93
2022-12-25T00:51:01.695Z,94.57
2022-12-25T00:53:28.433Z,104.20
2022-12-25T00:55:56.223Z,99.15
2022-12-25T00:58:23.175Z,98.75
2022-12-25T01:00:49.939Z,86.45
2022-12-25T01:03:17.092Z,92.88
2022-12-25T01:05:44.350Z,79.63
2022-12-25T01:08:10.826Z,75.88
2022-12-25T01:10:37.265Z,77.38
2022-12-25T01:13:03.754Z,80.28
2022-12-25T01:15:30.208Z,76.07
2022-12-25T01:17:56.622Z,78.80
2022-12-25T01:20:23.084Z,85.32
2022-12-25T01:22:49.475Z,87.80
2022-12-25T01:25:15.954Z,96.93
2022-12-25T01:27:42.636Z,95.50
2022-12-25T01:30:09.434Z,78.50
2022-12-25T01:32:35.904Z,87.53
2022-12-25T01:35:02.294Z,90.63
2022-12-25T01:37:28.719Z,91.15
2022-12-25T01:39:55.130Z,106.13
2022-12-25T01:42:23.717Z,100.68
2022-12-25T01:44:50.202Z,116.18
2022-12-25T01:47:17.845Z,110.53
2022-12-25T01:49:46.405Z,120.45
2022-12-25T01:52:21.802Z,99.55
2022-12-25T01:54:53.564Z,85.95
2022-12-25T01:57:22.912Z,80.88
2022-12-25T01:59:49.794Z,83.88
2022-12-25T02:02:16.345Z,98.28
2022-12-25T02:04:48.046Z,92.57
2022-12-25T02:07:19.600Z,99.47
2022-12-25T02:09:46.559Z,94.50
2022-12-25T02:12:18.884Z,100.10
2022-12-25T02:14:47.357Z,97.82
2022-12-25T02:17:34.041Z,92.05
2022-12-25T02:20:04.008Z,96.40
2022-12-25T02:22:33.551Z,101.05
2022-12-25T02:25:08.049Z,102.95
2022-12-25T02:27:46.643Z,100.28
2022-12-25T02:30:14.784Z,95.50
2022-12-25T02:32:45.390Z,90.90
2022-12-25T02:35:20.853Z,93.65
2022-12-25T02:38:01.357Z,85.97
2022-12-25T02:40:30.811Z,95.75
2022-12-25T02:43:20.597Z,93.63
2022-12-25T02:46:11.170Z,94.45
2022-12-25T02:48:59.539Z,91.05
2022-12-25T02:51:45.861Z,101.55
2022-12-25T02:54:32.738Z,89.28
2022-12-25T02:57:18.298Z,76.15
2022-12-25T03:00:05.306Z,87.22
2022-12-25T03:02:52.021Z,103.38
2022-12-25T03:05:40.160Z,105.47
2022-12-25T03:08:08.400Z,106.68
2022-12-25T03:10:55.917Z,100.30
2022-12-25T03:13:26.657Z,104.45
2022-12-25T03:16:11.963Z,109.07
2022-12-25T03:18:38.564Z,109.30
2022-12-25T03:21:23.632Z,111.95
2022-12-25T03:24:21.313Z,117.70
2022-12-25T03:26:57.992Z,102.72
2022-12-25T03:29:52.616Z,110.13
2022-12-25T03:32:40.090Z,98.47
2022-12-25T03:35:25.438Z,100.00
2022-12-25T03:38:10.308Z,109.60
2022-12-25T03:41:14.179Z,100.07
2022-12-25T03:44:04.699Z,95.57
2022-12-25T03:46:52.654Z,114.95
2022-12-25T03:49:44.190Z,91.13
2022-12-25T03:52:31.484Z,94.97
2022-12-25T03:55:18.201Z,91.90
2022-12-25T03:58:02.957Z,78.95
2022-12-25T04:00:58.373Z,94.45
2022-12-25T04:03:43.493Z,99.40
2022-12-25T04:06:28.582Z,84.45
2022-12-25T04:09:33.411Z,78.78
2022-12-25T04:12:18.334Z,87.95
2022-12-25T04:15:17.075Z,86.13
2022-12-25T04:18:01.957Z,85.85
2022-12-25T04:20:46.983Z,80.95
2022-12-25T04:23:31.770Z,85.10
2022-12-25T04:26:17.384Z,82.03
2022-12-25T04:29:02.189Z,84.78
2022-12-25T04:31:46.968Z,83.28
2022-12-25T04:34:32.154Z,82.82
2022-12-25T04:36:58.583Z,90.07
2022-12-25T04:39:25.017Z,121.80
2022-12-25T04:41:51.448Z,139.68
2022-12-25T04:44:17.842Z,107.85
2022-12-25T04:46:44.407Z,100.93
2022-12-25T04:49:10.914Z,106.22
2022-12-25T04:51:37.426Z,106.43
2022-12-25T04:54:03.876Z,107.13
2022-12-25T04:56:30.288Z,98.85
2022-12-25T04:58:56.779Z,97.65
2022-12-25T05:01:23.358Z,98.40
2022-12-25T05:03:49.992Z,87.47
2022-12-25T05:06:16.444Z,88.32
2022-12-25T05:08:42.919Z,82.78
2022-12-25T05:11:10.642Z,85.82
2022-12-25T05:13:37.177Z,78.07
2022-12-25T05:16:12.374Z,76.22
2022-12-25T05:18:38.975Z,78.88
2022-12-25T05:21:07.856Z,85.75
2022-12-25T05:23:34.544Z,78.07
2022-12-25T05:26:07.575Z,75.03
2022-12-25T05:28:35.129Z,87.85
2022-12-25T05:31:01.623Z,92.95
2022-12-25T05:33:28.054Z,89.68
2022-12-25T05:35:54.507Z,73.43
2022-12-25T05:38:20.925Z,72.00
2022-12-25T05:40:47.405Z,80.65
2022-12-25T05:43:13.924Z,72.78
2022-12-25T05:45:40.360Z,77.55
2022-12-25T05:48:06.795Z,73.45
2022-12-25T05:50:33.323Z,82.45
2022-12-25T05:53:04.423Z,78.25
2022-12-25T05:55:35.122Z,60.20
2022-12-25T05:58:01.724Z,83.10
2022-12-25T06:00:28.410Z,70.10
2022-12-25T06:02:54.958Z,70.88
2022-12-25T06:05:21.441Z,71.60
2022-12-25T06:07:47.865Z,73.28
2022-12-25T06:10:14.349Z,69.60
2022-12-25T06:12:40.906Z,73.72
2022-12-25T06:15:07.737Z,72.30
2022-12-25T06:17:34.152Z,70.72
2022-12-25T06:20:00.623Z,78.22
2022-12-25T06:22:30.874Z,63.85
2022-12-25T06:24:57.546Z,76.53
2022-12-25T06:27:24.563Z,73.90
2022-12-25T06:29:50.987Z,70.80
2022-12-25T06:32:17.426Z,72.93
2022-12-25T06:34:44.010Z,77.18
2022-12-25T06:37:10.460Z,72.55
2022-12-25T06:39:37.012Z,59.15
2022-12-25T06:42:03.688Z,68.53
2022-12-25T06:44:30.159Z,71.05
2022-12-25T06:46:56.651Z,67.53
2022-12-25T06:49:23.067Z,68.03
2022-12-25T06:51:49.563Z,83.38
2022-12-25T06:54:16.048Z,86.55
2022-12-25T06:56:42.476Z,90.45
2022-12-25T06:59:10.021Z,83.10
2022-12-25T07:01:38.359Z,82.40
2022-12-25T07:04:06.560Z,84.28
2022-12-25T07:06:33.544Z,79.25
2022-12-25T07:09:00.158Z,73.22
2022-12-25T07:11:26.607Z,69.25
2022-12-25T07:13:53.079Z,72.00
2022-12-25T07:16:20.201Z,79.50
2022-12-25T07:18:46.688Z,61.47
2022-12-25T07:21:15.040Z,71.53
2022-12-25T07:23:42.195Z,64.93
2022-12-25T07:26:10.003Z,61.05
2022-12-25T07:28:36.488Z,69.30
2022-12-25T07:31:13.703Z,70.93
2022-12-25T07:33:40.662Z,61.42
2022-12-25T07:36:07.852Z,67.68
2022-12-25T07:38:39.237Z,54.80
2022-12-25T07:41:08.168Z,67.25
2022-12-25T07:43:34.618Z,59.28
2022-12-25T07:46:01.584Z,64.20
2022-12-25T07:48:28.592Z,58.13
2022-12-25T07:50:55.942Z,55.90
2022-12-25T07:53:22.383Z,58.13
2022-12-25T07:55:48.818Z,56.40
2022-12-25T07:58:21.370Z,59.35
2022-12-25T08:00:50.555Z,47.75
2022-12-25T08:03:17.293Z,48.55
2022-12-25T08:05:43.903Z,57.38
2022-12-25T08:08:11.032Z,61.10
2022-12-25T08:10:37.577Z,44.53
2022-12-25T08:13:09.039Z,50.25
2022-12-25T15:03:37.821Z,78.70
2022-12-25T15:06:19.116Z,70.07
2022-12-25T15:08:56.676Z,73.78
2022-12-25T15:11:23.159Z,80.82
2022-12-25T15:13:49.639Z,71.95
2022-12-25T15:16:19.734Z,64.60
2022-12-25T15:18:46.735Z,72.13
2022-12-25T15:21:34.839Z,70.45
2022-12-25T15:24:01.333Z,76.25
2022-12-25T15:26:28.604Z,79.03
2022-12-25T15:28:55.757Z,80.07
2022-12-25T15:31:25.252Z,95.75
2022-12-25T15:33:54.635Z,101.68
2022-12-25T15:36:21.592Z,117.38
2022-12-25T15:38:48.998Z,139.27
2022-12-25T15:41:37.338Z,137.25
2022-12-25T15:44:05.662Z,218.73
2022-12-25T15:46:32.357Z,476.63
2022-12-25T15:48:58.855Z,604.97
2022-12-25T15:51:26.222Z,310.15
2022-12-25T15:53:52.761Z,254.60
2022-12-25T15:56:20.108Z,135.38
2022-12-25T15:58:46.518Z,142.25
2022-12-25T16:01:16.674Z,137.48
2022-12-25T16:03:44.809Z,119.65
2022-12-25T16:06:18.290Z,115.80
2022-12-25T16:08:45.538Z,110.75
2022-12-25T16:11:11.987Z,120.70
2022-12-25T16:13:39.433Z,114.47
2022-12-25T16:16:07.007Z,114.93
2022-12-25T16:18:34.422Z,107.50
2022-12-25T16:21:03.363Z,116.28
2022-12-25T16:23:31.354Z,100.10
2022-12-25T16:25:57.855Z,101.07
2022-12-25T16:28:24.279Z,102.15
2022-12-25T16:30:51.522Z,104.20
2022-12-25T16:33:18.073Z,99.05
2022-12-25T16:35:45.983Z,93.55
2022-12-25T16:38:12.616Z,88.05
2022-12-25T16:40:39.123Z,100.05
2022-12-25T16:43:06.430Z,103.55
2022-12-25T16:45:37.196Z,95.50
2022-12-25T16:48:04.448Z,95.57
2022-12-25T16:50:30.884Z,100.28
2022-12-25T16:52:58.002Z,113.22
2022-12-25T16:55:29.652Z,135.52
2022-12-25T16:57:57.951Z,133.80
2022-12-25T17:00:24.465Z,151.48
2022-12-25T17:02:51.062Z,142.30
2022-12-25T17:05:21.589Z,140.88
2022-12-25T17:07:48.368Z,152.73
2022-12-25T17:10:15.560Z,157.70
2022-12-25T17:12:42.506Z,149.70
2022-12-25T17:15:10.496Z,162.63
2022-12-25T17:17:36.914Z,149.40
2022-12-25T17:20:06.556Z,136.60
2022-12-25T17:22:33.701Z,144.43
2022-12-25T17:25:00.821Z,132.82
2022-12-25T17:27:27.687Z,117.03
2022-12-25T17:29:55.588Z,117.45
2022-12-25T17:32:22.048Z,109.97
2022-12-25T17:34:48.563Z,102.97
2022-12-25T17:37:15.889Z,98.00
2022-12-25T17:39:42.316Z,107.70
2022-12-25T17:42:09.733Z,101.55
2022-12-25T17:44:36.210Z,95.55
2022-12-25T17:47:03.492Z,105.45
2022-12-25T17:49:30.082Z,104.82
2022-12-25T17:51:57.241Z,94.20
2022-12-25T17:54:23.651Z,112.13
2022-12-25T17:56:51.428Z,98.07
2022-12-25T17:59:23.181Z,90.47
2022-12-25T18:01:50.417Z,104.80
2022-12-25T18:04:17.075Z,115.18
2022-12-25T18:06:49.755Z,109.03
2022-12-25T18:09:16.277Z,105.38
2022-12-25T18:11:43.046Z,112.03
2022-12-25T18:14:12.507Z,98.25
2022-12-25T18:16:41.493Z,88.75
2022-12-25T18:19:08.409Z,87.55
2022-12-25T18:21:36.474Z,88.82
2022-12-25T18:24:03.980Z,75.65
2022-12-25T18:26:30.570Z,66.50
2022-12-25T18:28:58.457Z,73.18
2022-12-25T18:31:26.439Z,73.03
2022-12-25T18:33:53.848Z,67.13
2022-12-25T18:36:21.952Z,66.68
2022-12-25T18:38:49.883Z,64.97
2022-12-25T18:41:16.416Z,66.65
2022-12-25T18:43:52.123Z,68.95
2022-12-25T18:46:24.024Z,58.47
2022-12-25T18:48:52.018Z,64.22
2022-12-25T18:51:18.694Z,68.82
2022-12-25T18:53:45.234Z,69.93
2022-12-25T18:56:17.691Z,62.28
2022-12-25T18:58:44.959Z,67.53
2022-12-25T19:01:21.537Z,61.22
2022-12-25T19:03:49.234Z,53.03
2022-12-25T19:06:27.381Z,58.17
2022-12-25T19:08:53.982Z,54.72
2022-12-25T19:11:20.773Z,50.88
2022-12-25T19:13:48.269Z,58.15
2022-12-25T19:16:14.888Z,53.00
2022-12-25T19:18:42.611Z,56.20
2022-12-25T19:21:12.394Z,49.78
2022-12-25T19:23:39.886Z,53.30
2022-12-25T19:26:07.440Z,50.45
2022-12-25T19:28:34.199Z,50.50
2022-12-25T19:31:01.914Z,56.70
2022-12-25T19:33:30.374Z,57.78
2022-12-25T19:36:10.486Z,48.58
2022-12-25T19:38:37.299Z,47.05
2022-12-25T19:41:07.435Z,45.80
2022-12-25T19:43:37.452Z,39.80
2022-12-25T19:46:04.757Z,47.80
2022-12-25T19:48:33.369Z,47.47
2022-12-25T19:51:00.322Z,50.58
2022-12-25T19:53:27.915Z,54.05
2022-12-25T19:55:54.570Z,48.83
2022-12-25T19:58:22.529Z,44.38
2022-12-25T20:01:02.495Z,51.17
2022-12-25T20:03:31.493Z,51.72
2022-12-25T20:05:58.047Z,56.08
2022-12-25T20:08:24.634Z,48.58
2022-12-25T20:10:52.377Z,45.15
2022-12-25T20:13:18.846Z,47.40
2022-12-25T20:15:46.278Z,48.72
2022-12-25T20:18:12.873Z,43.33
2022-12-25T20:20:40.253Z,45.90
2022-12-25T20:23:08.778Z,43.08
2022-12-25T20:25:41.382Z,41.92
2022-12-25T20:28:07.925Z,40.50
2022-12-25T20:30:34.519Z,35.40
2022-12-25T20:33:02.588Z,36.50
2022-12-25T20:35:29.012Z,40.78
2022-12-25T20:37:57.410Z,31.45
2022-12-25T20:40:23.875Z,30.95
2022-12-25T20:42:50.389Z,33.25
2022-12-25T20:45:21.542Z,32.03
2022-12-25T20:47:47.997Z,32.53
2022-12-25T20:50:14.429Z,32.80
2022-12-25T20:52:41.688Z,31.75
2022-12-25T20:55:08.258Z,33.65
2022-12-25T20:57:35.610Z,32.80
2022-12-25T21:00:02.132Z,30.10
2022-12-25T21:02:33.899Z,29.67
2022-12-25T21:05:02.272Z,29.27
2022-12-25T21:07:28.747Z,24.98
2022-12-25T21:09:56.344Z,27.80
2022-12-25T21:12:22.764Z,28.85
2022-12-25T21:14:50.056Z,28.70
2022-12-25T21:17:16.665Z,30.10
2022-12-25T21:19:44.374Z,27.70
2022-12-25T21:22:11.751Z,25.75
2022-12-25T21:24:39.335Z,31.17
2022-12-25T21:27:05.802Z,33.97
2022-12-25T21:29:33.154Z,27.98
2022-12-25T21:32:18.038Z,28.83
2022-12-25T21:34:46.389Z,35.20
2022-12-25T21:37:12.839Z,40.40
2022-12-25T21:39:40.225Z,34.83
2022-12-25T21:42:06.650Z,35.63
2022-12-25T21:44:33.165Z,38.88
2022-12-25T21:47:01.386Z,33.85
2022-12-25T21:50:06.021Z,39.92
2022-12-25T21:52:33.650Z,33.45
2022-12-25T21:55:00.162Z,27.67
2022-12-25T21:57:27.389Z,35.83
2022-12-25T21:59:53.819Z,28.05
2022-12-25T22:02:21.176Z,33.53
2022-12-25T22:04:47.733Z,31.88
2022-12-25T22:07:21.270Z,30.88
2022-12-25T22:09:48.918Z,25.17
2022-12-25T22:12:41.420Z,30.95
2022-12-25T22:15:10.496Z,28.02
2022-12-25T22:17:57.277Z,30.35
2022-12-25T22:20:27.925Z,26.77
2022-12-25T22:22:58.163Z,24.55
2022-12-25T22:25:24.917Z,24.58
2022-12-25T22:27:51.468Z,28.73
2022-12-25T22:30:20.083Z,28.70
2022-12-25T22:32:46.722Z,33.75
2022-12-25T22:35:14.912Z,33.40
2022-12-25T22:37:41.997Z,29.08
2022-12-25T22:40:10.713Z,25.80
2022-12-25T22:42:37.269Z,30.20
2022-12-25T22:45:04.766Z,25.88
2022-12-25T22:47:31.205Z,30.95
2022-12-25T22:49:58.505Z,27.85
2022-12-25T22:52:24.996Z,37.00
2022-12-25T22:54:52.262Z,31.98
2022-12-25T22:57:18.703Z,39.17
2022-12-25T22:59:46.095Z,30.02
2022-12-25T23:02:12.666Z,32.10
2022-12-25T23:04:39.184Z,26.65
2022-12-25T23:07:06.601Z,26.98
2022-12-25T23:09:33.088Z,32.22
2022-12-25T23:12:00.293Z,30.35
2022-12-25T23:14:39.577Z,30.02
2022-12-25T23:17:31.101Z,26.55
2022-12-25T23:20:17.806Z,24.70
2022-12-25T23:23:04.396Z,27.65
2022-12-25T23:25:50.021Z,29.67
2022-12-25T23:28:36.412Z,35.28
2022-12-25T23:31:03.555Z,31.23
2022-12-25T23:33:30.654Z,33.30
2022-12-25T23:35:57.112Z,35.47
2022-12-25T23:38:23.636Z,28.25
2022-12-25T23:40:50.028Z,27.48
2022-12-25T23:43:16.547Z,27.15
2022-12-25T23:45:43.099Z,31.25
2022-12-25T23:48:09.539Z,30.73
2022-12-25T23:50:35.976Z,26.98
2022-12-25T23:53:02.406Z,32.40
2022-12-25T23:55:28.820Z,31.38
2022-12-25T23:57:55.266Z,27.52
